createdAt,value
2023-01-25T00:02:08.200Z,33.00
2023-01-25T00:04:34.838Z,38.08
2023-01-25T00:07:01.439Z,41.50
2023-01-25T00:09:28.062Z,39.40
2023-01-25T00:11:57.885Z,43.17
2023-01-25T00:14:25.073Z,40.55
2023-01-25T00:16:51.832Z,38.72
2023-01-25T00:19:18.804Z,36.95
2023-01-25T00:21:45.718Z,37.65
2023-01-25T00:24:14.188Z,39.63
2023-01-25T00:26:43.858Z,47.80
2023-01-25T00:29:14.290Z,38.55
2023-01-25T00:32:09.900Z,42.17
2023-01-25T00:34:44.309Z,36.90
2023-01-25T00:37:25.331Z,43.60
2023-01-25T00:39:52.203Z,36.63
2023-01-25T00:42:19.853Z,40.92
2023-01-25T00:44:47.771Z,45.15
2023-01-25T00:47:15.515Z,46.88
2023-01-25T00:49:43.715Z,48.05
2023-01-25T00:52:11.353Z,40.03
2023-01-25T00:54:38.520Z,37.15
2023-01-25T00:57:05.401Z,31.98
2023-01-25T00:59:32.514Z,34.35
2023-01-25T01:01:59.138Z,36.25
2023-01-25T01:04:26.180Z,41.05
2023-01-25T01:06:54.068Z,38.55
2023-01-25T01:09:22.065Z,33.25
2023-01-25T01:11:48.961Z,34.88
2023-01-25T01:15:14.521Z,40.85
2023-01-25T01:19:14.971Z,41.72
2023-01-25T01:22:18.940Z,40.97
2023-01-25T01:24:48.357Z,47.55
2023-01-25T01:27:15.033Z,45.65
2023-01-25T01:29:41.735Z,44.92
2023-01-25T01:32:08.614Z,41.58
2023-01-25T01:34:35.405Z,47.72
2023-01-25T01:37:02.002Z,40.63
2023-01-25T01:39:28.620Z,33.55
2023-01-25T01:41:55.321Z,33.10
2023-01-25T01:44:42.312Z,28.42
2023-01-25T01:47:15.744Z,29.92
2023-01-25T01:49:48.038Z,30.63
2023-01-25T01:52:20.357Z,29.25
2023-01-25T01:55:02.948Z,37.92
2023-01-25T01:57:40.827Z,40.63
2023-01-25T02:00:14.134Z,46.38
2023-01-25T02:02:42.403Z,45.67
2023-01-25T02:05:20.573Z,38.92
2023-01-25T02:07:51.669Z,39.72
2023-01-25T02:10:20.660Z,35.20
2023-01-25T02:12:48.809Z,47.75
2023-01-25T02:15:15.619Z,53.17
2023-01-25T02:17:42.669Z,48.50
2023-01-25T02:20:14.677Z,44.55
2023-01-25T02:22:53.268Z,39.15
2023-01-25T02:25:20.326Z,39.47
2023-01-25T02:28:28.983Z,36.38
2023-01-25T02:30:55.706Z,37.13
2023-01-25T02:33:25.124Z,38.38
2023-01-25T02:35:59.401Z,40.30
2023-01-25T02:38:28.055Z,24.45
2023-01-25T02:41:21.530Z,19.15
2023-01-25T02:43:48.148Z,20.48
2023-01-25T02:46:25.941Z,24.52
2023-01-25T02:48:56.365Z,21.80
2023-01-25T02:51:24.851Z,21.20
2023-01-25T02:53:52.406Z,17.25
2023-01-25T02:56:19.919Z,20.27
2023-01-25T02:58:48.113Z,20.38
2023-01-25T03:01:16.570Z,21.52
2023-01-25T03:03:43.311Z,22.73
2023-01-25T03:06:10.654Z,18.25
2023-01-25T03:08:37.555Z,22.33
2023-01-25T03:11:06.310Z,22.50
2023-01-25T03:13:35.409Z,20.52
2023-01-25T03:16:05.908Z,16.35
2023-01-25T03:18:33.736Z,16.55
2023-01-25T03:21:11.319Z,13.95
2023-01-25T03:23:39.819Z,16.80
2023-01-25T03:26:16.893Z,20.98
2023-01-25T03:29:07.533Z,17.08
2023-01-25T03:31:37.795Z,18.40
2023-01-25T03:34:04.474Z,15.18
2023-01-25T03:36:35.335Z,18.10
2023-01-25T03:39:03.213Z,16.27
2023-01-25T03:41:29.985Z,15.00
2023-01-25T03:43:59.213Z,14.40
2023-01-25T03:46:27.621Z,19.17
2023-01-25T03:48:54.413Z,17.95
2023-01-25T03:51:21.358Z,18.75
2023-01-25T03:53:48.320Z,13.90
2023-01-25T03:56:20.147Z,16.35
2023-01-25T03:59:07.988Z,13.25
2023-01-25T04:01:35.062Z,13.77
2023-01-25T04:04:02.711Z,16.25
2023-01-25T04:06:29.856Z,15.02
2023-01-25T04:08:57.326Z,16.65
2023-01-25T04:11:25.875Z,16.10
2023-01-25T04:13:52.520Z,12.77
2023-01-25T04:16:21.360Z,15.93
2023-01-25T04:19:12.005Z,16.52
2023-01-25T04:21:39.352Z,15.13
2023-01-25T04:24:06.314Z,16.48
2023-01-25T04:26:36.828Z,17.42
2023-01-25T04:29:03.830Z,13.15
2023-01-25T04:31:31.167Z,15.20
2023-01-25T04:33:58.192Z,13.98
2023-01-25T04:36:24.820Z,14.35
2023-01-25T04:38:51.783Z,19.35
2023-01-25T04:41:19.747Z,13.77
2023-01-25T04:43:46.281Z,18.10
2023-01-25T04:46:14.346Z,16.45
2023-01-25T04:48:40.926Z,13.15
2023-01-25T04:51:09.367Z,14.60
2023-01-25T04:53:35.909Z,14.77
2023-01-25T04:56:05.671Z,19.88
2023-01-25T04:58:38.039Z,16.02
2023-01-25T05:01:05.350Z,13.68
2023-01-25T05:03:32.440Z,14.18
2023-01-25T05:05:59.336Z,14.73
2023-01-25T05:08:26.739Z,15.52
2023-01-25T05:10:58.444Z,14.05
2023-01-25T05:13:25.114Z,16.08
2023-01-25T05:16:00.632Z,13.38
2023-01-25T05:18:33.135Z,12.73
2023-01-25T05:21:25.924Z,14.55
2023-01-25T05:23:53.137Z,18.30
2023-01-25T05:26:38.721Z,17.58
2023-01-25T05:29:06.611Z,15.48
2023-01-25T05:31:40.663Z,17.20
2023-01-25T05:34:09.069Z,17.63
2023-01-25T05:36:35.658Z,15.80
2023-01-25T05:39:02.221Z,17.52
2023-01-25T05:41:31.371Z,15.98
2023-01-25T05:43:58.455Z,14.52
2023-01-25T05:46:27.702Z,20.83
2023-01-25T05:48:54.596Z,13.95
2023-01-25T05:51:23.803Z,17.05
2023-01-25T05:53:50.477Z,16.35
2023-01-25T05:56:17.935Z,18.70
2023-01-25T05:58:44.538Z,14.98
2023-01-25T06:01:11.641Z,17.17
2023-01-25T06:06:13.853Z,13.90
2023-01-25T06:08:42.071Z,16.20
2023-01-25T06:11:10.464Z,15.57
2023-01-25T06:13:41.097Z,15.00
2023-01-25T06:16:08.289Z,16.10
2023-01-25T06:18:58.101Z,17.50
2023-01-25T06:21:46.297Z,22.27
2023-01-25T06:24:12.886Z,13.32
2023-01-25T06:26:39.572Z,21.38
2023-01-25T06:29:06.877Z,18.60
2023-01-25T06:31:34.821Z,17.95
2023-01-25T06:34:04.426Z,21.70
2023-01-25T06:36:32.192Z,22.85
2023-01-25T06:38:58.767Z,17.55
2023-01-25T06:41:25.825Z,23.50
2023-01-25T06:43:53.048Z,20.23
2023-01-25T06:46:20.173Z,20.30
2023-01-25T06:48:46.799Z,16.63
2023-01-25T06:51:16.400Z,17.98
2023-01-25T06:53:44.721Z,21.73
2023-01-25T06:56:21.439Z,21.92
2023-01-25T06:58:49.026Z,31.85
2023-01-25T07:01:21.316Z,26.67
2023-01-25T07:03:53.646Z,19.25
2023-01-25T07:06:20.866Z,19.60
2023-01-25T07:08:48.185Z,27.05
2023-01-25T07:11:16.000Z,27.15
2023-01-25T07:13:45.612Z,22.00
2023-01-25T07:16:17.466Z,19.48
2023-01-25T07:18:44.476Z,18.38
2023-01-25T07:21:16.747Z,19.65
2023-01-25T07:23:44.089Z,32.13
2023-01-25T07:26:17.565Z,20.33
2023-01-25T07:28:45.850Z,23.85
2023-01-25T07:31:12.624Z,22.35
2023-01-25T07:33:39.153Z,21.55
2023-01-25T07:36:08.212Z,27.58
2023-01-25T07:38:36.267Z,23.30
2023-01-25T07:41:03.551Z,28.88
2023-01-25T07:43:30.631Z,21.45
2023-01-25T07:46:11.041Z,24.33
2023-01-25T07:48:38.396Z,20.40
2023-01-25T07:51:31.043Z,22.73
2023-01-25T07:54:03.081Z,22.67
2023-01-25T07:56:35.180Z,21.80
2023-01-25T07:59:08.044Z,30.65
2023-01-25T08:01:36.519Z,25.67
2023-01-25T08:04:04.666Z,18.60
2023-01-25T08:06:36.297Z,22.60
2023-01-25T08:09:11.036Z,18.42
2023-01-25T08:11:37.849Z,18.77
2023-01-25T08:14:04.522Z,25.95
2023-01-25T08:16:32.128Z,25.30
2023-01-25T08:19:00.950Z,24.17
2023-01-25T08:21:31.414Z,20.73
2023-01-25T08:24:04.117Z,21.13
2023-01-25T08:26:31.049Z,19.52
2023-01-25T08:28:58.291Z,26.98
2023-01-25T08:31:28.389Z,26.75
2023-01-25T08:33:55.382Z,26.10
2023-01-25T08:36:24.158Z,30.35
2023-01-25T08:38:55.820Z,23.42
2023-01-25T08:41:22.741Z,22.48
2023-01-25T08:43:52.544Z,23.45
2023-01-25T08:46:20.157Z,30.05
2023-01-25T08:48:47.928Z,22.15
2023-01-25T08:51:16.938Z,21.63
2023-01-25T08:53:43.958Z,30.48
2023-01-25T08:56:12.889Z,28.80
2023-01-25T08:58:42.062Z,26.08
2023-01-25T09:01:10.739Z,31.83
2023-01-25T09:03:46.096Z,29.42
2023-01-25T09:06:13.387Z,28.35
2023-01-25T09:08:40.304Z,25.35
2023-01-25T09:11:10.107Z,29.92
2023-01-25T09:13:36.972Z,25.55
2023-01-25T09:16:06.568Z,28.60
2023-01-25T09:18:35.353Z,29.92
2023-01-25T09:21:09.693Z,33.88
2023-01-25T09:23:50.259Z,30.53
2023-01-25T09:26:23.309Z,31.05
2023-01-25T09:28:52.456Z,33.50
2023-01-25T09:31:23.225Z,32.30
2023-01-25T09:34:08.917Z,34.60
2023-01-25T09:36:36.223Z,37.13
2023-01-25T09:39:03.379Z,35.22
2023-01-25T09:42:14.627Z,31.60
2023-01-25T09:45:07.130Z,30.65
2023-01-25T09:48:02.964Z,30.85
2023-01-25T09:50:38.341Z,34.60
2023-01-25T09:55:54.081Z,27.73
2023-01-25T09:58:26.379Z,28.35
2023-01-25T10:01:05.853Z,36.97
2023-01-25T10:03:48.353Z,31.75
2023-01-25T10:06:17.353Z,32.75
2023-01-25T10:09:01.115Z,33.85
2023-01-25T10:11:30.671Z,33.35
2023-01-25T10:13:58.374Z,30.33
2023-01-25T10:16:46.181Z,32.80
2023-01-25T10:19:24.468Z,34.17
2023-01-25T10:22:29.901Z,34.65
2023-01-25T10:25:19.128Z,36.15
2023-01-25T10:27:50.053Z,36.13
2023-01-25T10:30:39.882Z,30.83
2023-01-25T10:33:18.009Z,34.83
2023-01-25T10:35:47.697Z,36.13
2023-01-25T10:38:23.432Z,33.38
2023-01-25T10:40:56.365Z,31.08
2023-01-25T10:43:23.361Z,33.72
2023-01-25T10:45:50.687Z,34.25
2023-01-25T10:48:24.568Z,32.20
2023-01-25T10:50:55.870Z,26.52
2023-01-25T10:53:26.671Z,29.60
2023-01-25T10:56:10.365Z,33.42
2023-01-25T10:58:39.878Z,27.10
2023-01-25T11:01:12.171Z,28.05
2023-01-25T11:03:46.917Z,34.20
2023-01-25T11:06:13.463Z,38.88
2023-01-25T11:08:42.257Z,29.17
2023-01-25T11:11:23.187Z,33.30
2023-01-25T11:13:50.321Z,30.45
2023-01-25T11:16:23.147Z,30.73
2023-01-25T11:18:52.268Z,35.38
2023-01-25T11:21:23.176Z,30.23
2023-01-25T11:24:01.668Z,32.10
2023-01-25T11:26:29.016Z,37.92
2023-01-25T11:29:12.512Z,37.45
2023-01-25T11:31:45.927Z,36.22
2023-01-25T11:34:15.848Z,38.75
2023-01-25T11:36:57.310Z,41.17
2023-01-25T11:39:47.948Z,39.58
2023-01-25T11:42:26.207Z,41.75
2023-01-25T11:45:09.720Z,41.92
2023-01-25T11:47:51.444Z,45.30
2023-01-25T11:50:36.021Z,42.67
2023-01-25T11:53:21.417Z,43.63
2023-01-25T11:56:15.047Z,43.35
2023-01-25T11:59:06.142Z,40.10
2023-01-25T12:01:41.485Z,36.60
2023-01-25T12:06:55.568Z,45.50
2023-01-25T12:09:36.538Z,67.40
2023-01-25T12:12:18.409Z,45.72
2023-01-25T12:14:56.067Z,39.58
2023-01-25T12:17:38.607Z,39.72
2023-01-25T12:20:20.332Z,46.58
2023-01-25T12:23:21.056Z,36.92
2023-01-25T12:25:52.277Z,34.17
2023-01-25T12:28:25.458Z,33.47
2023-01-25T12:31:24.866Z,33.95
2023-01-25T12:34:05.035Z,38.97
2023-01-25T12:36:37.450Z,44.30
2023-01-25T12:39:06.398Z,51.00
2023-01-25T12:41:44.831Z,39.60
2023-01-25T12:44:23.822Z,43.90
2023-01-25T12:46:57.681Z,44.22
2023-01-25T12:49:33.512Z,40.28
2023-01-25T12:52:06.542Z,44.38
2023-01-25T12:54:38.061Z,51.53
2023-01-25T12:57:22.079Z,40.13
2023-01-25T13:00:00.646Z,42.38
2023-01-25T13:02:50.300Z,39.53
2023-01-25T13:05:48.354Z,52.83
2023-01-25T13:08:33.792Z,49.42
2023-01-25T13:11:12.620Z,49.58
2023-01-25T13:13:39.566Z,45.03
2023-01-25T13:16:28.916Z,40.05
2023-01-25T13:18:56.491Z,51.30
2023-01-25T13:21:40.199Z,41.72
2023-01-25T13:24:11.109Z,50.20
2023-01-25T13:26:49.536Z,39.95
2023-01-25T13:29:45.798Z,48.65
2023-01-25T13:32:24.518Z,58.83
2023-01-25T13:34:51.595Z,45.67
2023-01-25T13:37:20.343Z,54.03
2023-01-25T13:39:49.895Z,45.60
2023-01-25T13:42:19.651Z,48.45
2023-01-25T13:44:55.765Z,46.47
2023-01-25T13:47:43.533Z,47.85
2023-01-25T13:50:27.522Z,50.67
2023-01-25T13:53:01.606Z,48.33
2023-01-25T13:55:29.507Z,50.00
2023-01-25T13:58:19.148Z,49.97
2023-01-25T14:00:52.973Z,53.13
2023-01-25T14:03:23.144Z,50.08
2023-01-25T14:05:52.579Z,56.63
2023-01-25T14:08:20.869Z,63.22
2023-01-25T14:10:48.696Z,63.08
2023-01-25T14:13:17.361Z,55.15
2023-01-25T14:15:58.669Z,57.95
2023-01-25T14:18:32.576Z,51.60
2023-01-25T14:21:20.493Z,54.47
2023-01-25T14:23:49.012Z,65.75
2023-01-25T14:26:26.589Z,64.78
2023-01-25T14:29:01.365Z,53.92
2023-01-25T14:31:38.117Z,59.08
2023-01-25T14:36:34.662Z,52.60
2023-01-25T14:39:03.789Z,53.15
2023-01-25T14:41:37.184Z,51.22
2023-01-25T14:44:13.473Z,53.08
2023-01-25T14:46:41.527Z,50.75
2023-01-25T14:49:25.229Z,67.10
2023-01-25T14:51:54.813Z,50.47
2023-01-25T14:54:28.108Z,63.58
2023-01-25T14:56:57.652Z,53.33
2023-01-25T14:59:27.359Z,73.63
2023-01-25T15:01:56.182Z,64.28
2023-01-25T15:04:23.395Z,57.50
2023-01-25T15:06:57.382Z,55.08
2023-01-25T15:09:34.040Z,67.72
2023-01-25T15:12:16.098Z,63.03
2023-01-25T15:14:51.088Z,65.80
2023-01-25T15:17:37.806Z,65.88
2023-01-25T15:20:04.755Z,55.25
2023-01-25T15:22:31.416Z,56.08
2023-01-25T15:24:58.704Z,53.40
2023-01-25T15:27:25.255Z,52.63
2023-01-25T15:29:51.912Z,59.20
2023-01-25T15:32:21.029Z,52.35
2023-01-25T15:34:48.300Z,55.47
2023-01-25T15:37:14.889Z,65.00
2023-01-25T15:39:41.479Z,58.47
2023-01-25T15:42:09.051Z,61.85
2023-01-25T15:44:35.625Z,56.22
2023-01-25T15:47:02.307Z,58.55
2023-01-25T15:49:31.534Z,68.75
2023-01-25T15:51:58.259Z,65.10
2023-01-25T15:54:25.014Z,54.60
2023-01-25T15:56:55.944Z,54.72
2023-01-25T15:59:22.646Z,66.05
2023-01-25T16:01:49.199Z,53.80
2023-01-25T16:04:16.028Z,60.45
2023-01-25T16:06:54.007Z,51.72
2023-01-25T16:09:22.241Z,57.22
2023-01-25T16:11:54.216Z,50.80
2023-01-25T16:14:23.441Z,54.75
2023-01-25T16:16:52.137Z,55.53
2023-01-25T16:19:21.908Z,45.53
2023-01-25T16:21:49.322Z,47.63
2023-01-25T16:24:16.231Z,53.50
2023-01-25T16:26:53.300Z,44.42
2023-01-25T16:29:20.462Z,54.03
2023-01-25T16:31:47.104Z,63.38
2023-01-25T16:34:13.959Z,41.72
2023-01-25T16:36:40.719Z,52.35
2023-01-25T16:39:21.752Z,46.42
2023-01-25T16:41:49.244Z,48.25
2023-01-25T16:44:16.454Z,49.70
2023-01-25T16:46:43.473Z,49.20
2023-01-25T16:49:22.484Z,49.78
2023-01-25T16:51:50.315Z,43.38
2023-01-25T16:54:19.765Z,46.80
2023-01-25T16:56:47.343Z,52.50
2023-01-25T16:59:13.937Z,49.83
2023-01-25T17:01:41.583Z,46.92
2023-01-25T17:04:09.176Z,53.50
2023-01-25T17:06:38.185Z,47.92
2023-01-25T17:09:21.620Z,60.80
2023-01-25T17:11:49.646Z,53.85
2023-01-25T17:14:18.660Z,60.63
2023-01-25T17:16:47.862Z,58.25
2023-01-25T17:19:15.946Z,57.15
2023-01-25T17:21:42.764Z,48.70
2023-01-25T17:24:13.318Z,51.90
2023-01-25T17:26:40.881Z,51.60
2023-01-25T17:29:10.029Z,47.30
2023-01-25T17:31:37.135Z,57.38
2023-01-25T17:34:06.414Z,43.17
2023-01-25T17:36:33.290Z,37.03
2023-01-25T17:39:05.174Z,44.90
2023-01-25T17:41:32.490Z,53.40
2023-01-25T17:43:59.385Z,45.97
2023-01-25T17:46:33.113Z,52.80
2023-01-25T17:49:02.167Z,54.60
2023-01-25T17:51:28.799Z,44.22
2023-01-25T17:53:55.436Z,41.60
2023-01-25T17:56:21.944Z,49.75
2023-01-25T17:58:48.769Z,45.92
2023-01-25T18:01:18.224Z,45.63
2023-01-25T18:03:46.590Z,44.95
2023-01-25T18:06:16.764Z,45.50
2023-01-25T18:08:48.922Z,44.58
2023-01-25T18:11:18.548Z,40.85
2023-01-25T18:13:49.939Z,41.53
2023-01-25T18:16:17.818Z,41.45
2023-01-25T18:18:45.352Z,44.33
2023-01-25T18:21:21.944Z,43.13
2023-01-25T18:23:48.766Z,46.05
2023-01-25T18:26:26.768Z,43.28
2023-01-25T18:28:55.239Z,43.35
2023-01-25T18:31:21.956Z,47.05
2023-01-25T18:33:48.543Z,52.28
2023-01-25T18:36:15.993Z,55.30
2023-01-25T18:38:42.845Z,46.35
2023-01-25T18:41:09.517Z,41.90
2023-01-25T18:43:36.113Z,45.15
2023-01-25T18:46:02.797Z,44.78
2023-01-25T18:48:32.331Z,48.00
2023-01-25T18:51:12.819Z,56.95
2023-01-25T18:53:42.219Z,55.15
2023-01-25T18:56:12.907Z,57.55
2023-01-25T18:58:39.899Z,61.85
2023-01-25T19:01:10.416Z,50.80
2023-01-25T19:03:37.139Z,45.35
2023-01-25T19:06:04.426Z,56.65
2023-01-25T19:08:33.024Z,49.83
2023-01-25T19:11:05.862Z,51.42
2023-01-25T19:13:37.204Z,49.53
2023-01-25T19:16:06.785Z,53.47
2023-01-25T19:18:39.421Z,54.95
2023-01-25T19:21:10.249Z,60.45
2023-01-25T19:23:38.668Z,53.38
2023-01-25T19:26:07.099Z,50.10
2023-01-25T19:28:38.667Z,54.85
2023-01-25T19:31:09.489Z,55.78
2023-01-25T19:33:36.713Z,48.35
2023-01-25T19:36:06.517Z,52.92
2023-01-25T19:38:38.373Z,51.90
2023-01-25T19:41:06.882Z,57.72
2023-01-25T19:43:33.521Z,49.88
2023-01-25T19:46:17.675Z,45.90
2023-01-25T19:48:46.436Z,45.05
2023-01-25T19:51:19.816Z,45.50
2023-01-25T19:53:52.775Z,52.90
2023-01-25T19:56:19.646Z,54.00
2023-01-25T19:58:47.936Z,70.40
2023-01-25T20:01:19.936Z,44.80
2023-01-25T20:03:47.263Z,51.50
2023-01-25T20:06:16.262Z,47.67
2023-01-25T20:08:44.247Z,54.83
2023-01-25T20:11:19.618Z,49.78
2023-01-25T20:13:47.023Z,53.33
2023-01-25T20:16:17.055Z,60.95
2023-01-25T20:18:45.053Z,59.53
2023-01-25T20:21:14.675Z,50.35
2023-01-25T20:23:43.465Z,52.60
2023-01-25T20:26:15.929Z,53.50
2023-01-25T20:28:44.295Z,53.42
2023-01-25T20:31:27.845Z,50.13
2023-01-25T20:33:59.543Z,49.00
2023-01-25T20:36:28.575Z,54.53
2023-01-25T20:38:56.220Z,56.78
2023-01-25T20:41:23.482Z,49.65
2023-01-25T20:44:01.972Z,55.13
2023-01-25T20:46:33.548Z,49.60
2023-01-25T20:49:01.670Z,58.75
2023-01-25T20:51:28.510Z,54.58
2023-01-25T20:53:55.573Z,52.50
2023-01-25T20:56:23.024Z,55.80
2023-01-25T20:58:50.777Z,54.13
2023-01-25T21:01:19.198Z,55.53
2023-01-25T21:03:46.051Z,60.00
2023-01-25T21:06:13.422Z,63.50
2023-01-25T21:08:40.159Z,54.42
2023-01-25T21:11:07.271Z,57.15
2023-01-25T21:13:33.938Z,59.40
2023-01-25T21:16:10.253Z,59.90
2023-01-25T21:18:39.285Z,62.95
2023-01-25T21:21:12.328Z,50.92
2023-01-25T21:23:41.218Z,51.55
2023-01-25T21:26:10.583Z,55.42
2023-01-25T21:28:37.191Z,56.97
2023-01-25T21:31:12.079Z,51.35
2023-01-25T21:33:39.283Z,72.13
2023-01-25T21:36:08.586Z,60.20
2023-01-25T21:38:36.118Z,67.68
2023-01-25T21:41:04.812Z,61.47
2023-01-25T21:43:52.600Z,64.18
2023-01-25T21:46:27.198Z,58.28
2023-01-25T21:49:18.201Z,59.35
2023-01-25T21:51:50.824Z,66.18
2023-01-25T21:54:25.572Z,69.30
2023-01-25T21:56:54.351Z,62.28
2023-01-25T21:59:21.636Z,64.60
2023-01-25T22:01:48.871Z,69.22
2023-01-25T22:04:17.148Z,68.07
2023-01-25T22:06:44.141Z,68.10
2023-01-25T22:09:13.061Z,59.67
2023-01-25T22:11:40.208Z,60.38
2023-01-25T22:14:06.815Z,74.07
2023-01-25T22:16:33.730Z,73.97
2023-01-25T22:19:00.477Z,62.40
2023-01-25T22:21:30.599Z,65.47
2023-01-25T22:23:59.063Z,61.67
2023-01-25T22:26:29.953Z,64.28
2023-01-25T22:28:58.715Z,57.42
2023-01-25T22:31:28.245Z,72.93
2023-01-25T22:33:56.461Z,68.78
2023-01-25T22:36:25.100Z,77.60
2023-01-25T22:38:51.800Z,62.83
2023-01-25T22:41:23.966Z,63.05
2023-01-25T22:43:51.329Z,66.18
2023-01-25T22:46:20.745Z,71.40
2023-01-25T22:48:47.852Z,60.55
2023-01-25T22:51:19.893Z,71.88
2023-01-25T22:53:46.595Z,67.60
2023-01-25T22:56:16.121Z,76.05
2023-01-25T22:58:44.311Z,77.85
2023-01-25T23:01:17.853Z,69.13
2023-01-25T23:03:45.064Z,79.43
2023-01-25T23:06:14.640Z,79.38
2023-01-25T23:08:41.739Z,69.10
2023-01-25T23:11:11.826Z,79.68
2023-01-25T23:13:39.794Z,89.57
2023-01-25T23:16:09.063Z,78.63
2023-01-25T23:18:51.610Z,87.45
2023-01-25T23:21:20.988Z,87.07
2023-01-25T23:23:48.702Z,75.30
2023-01-25T23:26:16.448Z,89.45
2023-01-25T23:28:43.403Z,79.53
2023-01-25T23:31:18.650Z,84.55
2023-01-25T23:33:47.307Z,81.70
2023-01-25T23:36:19.025Z,79.95
2023-01-25T23:38:46.506Z,81.57
2023-01-25T23:41:14.442Z,82.88
2023-01-25T23:43:41.500Z,68.82
2023-01-25T23:46:08.755Z,92.00
2023-01-25T23:48:35.467Z,81.18
2023-01-25T23:51:02.561Z,81.47
2023-01-25T23:53:33.128Z,62.97
2023-01-25T23:56:02.199Z,84.97
2023-01-25T23:58:29.946Z,76.22
